Time;durP1;ratioP1;P1;durP2;ratioP2;P2;SDS_P1;SDS_P2;PMS_P1;PMS_P2;Temp;Humidity;BMP_temperature;BMP_pressure;BME280_temperature;BME280_humidity;BME280_pressure;Samples;Min_cycle;Max_cycle;Signal;HPM_P1;HPM_P2
2022/09/05 00:00:02;;;;;;;9.10;2.83;;;19.30;91.20;;;;;;4984267;28;20061;-68
2022/09/05 00:02:54;;;;;;;8.32;2.55;;;19.30;91.50;;;;;;4917988;28;209853;-67
2022/09/05 00:05:29;;;;;;;8.18;3.00;;;19.30;91.40;;;;;;4942544;28;210153;-68
2022/09/05 00:08:17;;;;;;;7.40;2.47;;;19.20;91.60;;;;;;4995155;28;20511;-68
2022/09/05 00:11:07;;;;;;;10.88;2.90;;;19.20;91.70;;;;;;4938052;28;206867;-68
2022/09/05 00:13:48;;;;;;;7.55;2.65;;;19.20;91.80;;;;;;4982719;28;20061;-68
2022/09/05 00:16:35;;;;;;;10.13;3.10;;;19.10;91.90;;;;;;4946433;28;208787;-69
2022/09/05 00:19:40;;;;;;;10.25;3.28;;;19.10;92.10;;;;;;4981493;28;20515;-68
2022/09/05 00:22:24;;;;;;;8.02;3.00;;;19.10;92.40;;;;;;4954691;28;209666;-68
2022/09/05 00:25:09;;;;;;;10.27;3.08;;;19.00;92.50;;;;;;4979976;28;20054;-68
2022/09/05 00:28:36;;;;;;;8.45;3.00;;;19.00;92.70;;;;;;4947807;28;204587;-68
2022/09/05 00:31:26;;;;;;;8.48;2.88;;;18.90;92.80;;;;;;4882692;29;206136;-68
2022/09/05 00:33:58;;;;;;;8.00;3.08;;;18.90;92.90;;;;;;4929582;29;20052;-69
2022/09/05 00:36:39;;;;;;;9.05;2.88;;;18.90;93.00;;;;;;4878069;29;206766;-69
2022/09/05 00:39:30;;;;;;;10.25;3.60;;;18.80;93.20;;;;;;4914883;29;20063;-68
2022/09/05 00:42:00;;;;;;;8.93;3.28;;;18.80;93.40;;;;;;4875623;29;213285;-68
2022/09/05 00:44:31;;;;;;;7.70;3.08;;;18.80;93.60;;;;;;4930172;29;20063;-69
2022/09/05 00:47:13;;;;;;;8.15;3.30;;;18.70;93.70;;;;;;4885669;29;208971;-68
2022/09/05 00:49:48;;;;;;;7.90;3.00;;;18.70;94.10;;;;;;4928780;29;20051;-68
2022/09/05 00:52:26;;;;;;;7.93;3.00;;;18.70;94.10;;;;;;4880752;29;207456;-68
2022/09/05 00:55:13;;;;;;;8.20;3.20;;;18.60;94.20;;;;;;4928508;29;20548;-68
2022/09/05 00:57:57;;;;;;;11.07;3.00;;;18.60;94.30;;;;;;4843288;29;206160;-68
2022/09/05 01:00:36;;;;;;;9.38;3.47;;;18.60;94.40;;;;;;4880026;29;206286;-68
2022/09/05 01:03:24;;;;;;;9.55;3.33;;;18.50;94.60;;;;;;4926729;29;20055;-68
2022/09/05 01:06:13;;;;;;;10.02;3.60;;;18.60;94.80;;;;;;4931449;28;212284;-68
2022/09/05 01:09:11;;;;;;;8.50;3.38;;;18.50;95.00;;;;;;4986052;28;20038;-68
2022/09/05 01:11:55;;;;;;;10.02;3.53;;;18.50;95.20;;;;;;4948680;28;218812;-68
2022/09/05 01:14:45;;;;;;;7.65;2.90;;;18.40;95.20;;;;;;4985930;28;20050;-68
2022/09/05 01:17:29;;;;;;;8.10;3.30;;;18.40;95.40;;;;;;4949344;28;208350;-68
2022/09/05 01:20:37;;;;;;;11.02;3.47;;;18.40;95.50;;;;;;4966576;28;210286;-68
2022/09/05 01:23:06;;;;;;;8.88;3.70;;;18.40;95.60;;;;;;4949975;28;37784;-68
2022/09/05 01:25:49;;;;;;;8.15;3.42;;;18.30;95.80;;;;;;4937510;28;206860;-69
2022/09/05 01:28:30;;;;;;;9.82;3.50;;;18.30;95.90;;;;;;4987538;28;20534;-69
2022/09/05 01:31:18;;;;;;;8.10;3.42;;;18.30;96.00;;;;;;4937940;28;207270;-69
2022/09/05 01:34:26;;;;;;;10.88;3.60;;;18.20;96.10;;;;;;4981002;28;20578;-68
2022/09/05 01:37:07;;;;;;;9.50;3.83;;;18.20;96.30;;;;;;4889510;29;156829;-68
2022/09/05 01:39:45;;;;;;;14.10;3.60;;;18.10;96.50;;;;;;4938786;28;20051;-68
2022/09/05 01:42:30;;;;;;;7.50;3.58;;;18.10;96.50;;;;;;4865782;29;207014;-69
2022/09/05 01:45:03;;;;;;;9.60;3.30;;;18.10;96.70;;;;;;4909036;29;197871;-68
2022/09/05 01:47:55;;;;;;;9.10;3.70;;;18.10;96.60;;;;;;4891751;29;206401;-68
2022/09/05 01:50:41;;;;;;;9.07;3.70;;;18.00;96.70;;;;;;4899636;28;163890;-68
2022/09/05 01:53:24;;;;;;;9.40;3.60;;;18.00;97.00;;;;;;4915737;29;20539;-68
2022/09/05 01:56:28;;;;;;;10.55;3.83;;;17.90;97.00;;;;;;4875307;29;209826;-68
2022/09/05 01:59:29;;;;;;;9.80;3.95;;;17.90;97.10;;;;;;4887987;29;20059;-68
2022/09/05 02:02:30;;;;;;;9.00;3.70;;;17.90;97.20;;;;;;4849172;29;196060;-67
2022/09/05 02:05:22;;;;;;;9.30;3.80;;;17.80;97.20;;;;;;4869296;29;214882;-68
2022/09/05 02:07:53;;;;;;;8.43;3.65;;;17.80;97.10;;;;;;4875439;29;206948;-68
2022/09/05 02:10:28;;;;;;;8.65;3.78;;;17.70;97.20;;;;;;4842162;29;209923;-68
2022/09/05 02:13:03;;;;;;;8.45;3.92;;;17.70;97.20;;;;;;4911771;28;20059;-67
2022/09/05 02:15:48;;;;;;;9.07;3.72;;;17.60;97.30;;;;;;4897948;28;205634;-67
2022/09/05 02:18:25;;;;;;;9.40;3.90;;;17.60;97.40;;;;;;4935628;29;20199;-68
2022/09/05 02:20:59;;;;;;;14.02;4.07;;;17.60;97.50;;;;;;4892073;28;209491;-68
2022/09/05 02:23:43;;;;;;;8.13;3.75;;;17.50;97.60;;;;;;4941587;28;20058;-68
2022/09/05 02:26:22;;;;;;;9.65;3.90;;;17.50;97.80;;;;;;4903630;28;140209;-68
2022/09/05 02:28:59;;;;;;;9.13;3.97;;;17.50;97.80;;;;;;4940747;28;20061;-68
2022/09/05 02:31:44;;;;;;;10.35;4.57;;;17.40;98.00;;;;;;4877535;28;209946;-68
2022/09/05 02:34:23;;;;;;;9.10;4.13;;;17.40;98.10;;;;;;4958735;28;20054;-68
2022/09/05 02:37:07;;;;;;;10.57;3.90;;;17.40;98.20;;;;;;4928680;28;206255;-68
2022/09/05 02:40:04;;;;;;;9.65;4.13;;;17.30;98.30;;;;;;4978483;28;20401;-68
2022/09/05 02:42:48;;;;;;;11.10;4.22;;;17.30;98.50;;;;;;4939413;28;206627;-69
2022/09/05 02:45:14;;;;;;;10.55;4.38;;;17.20;98.60;;;;;;4929999;28;214246;-67
2022/09/05 02:47:50;;;;;;;9.27;4.32;;;17.20;98.80;;;;;;4972027;28;20065;-68
2022/09/05 02:50:41;;;;;;;8.93;4.15;;;17.20;99.00;;;;;;4936355;28;209156;-68
2022/09/05 02:53:11;;;;;;;8.63;4.35;;;17.10;99.00;;;;;;4983892;28;20794;-68
2022/09/05 02:56:07;;;;;;;11.45;4.38;;;17.10;99.20;;;;;;4943427;28;208494;-68
2022/09/05 02:58:55;;;;;;;9.48;4.10;;;17.10;99.30;;;;;;4984720;28;20069;-68
2022/09/05 03:01:33;;;;;;;9.35;4.47;;;17.00;99.30;;;;;;4938690;28;206283;-69
2022/09/05 03:04:08;;;;;;;8.82;4.50;;;17.00;99.30;;;;;;4985788;28;20503;-69
2022/09/05 03:06:53;;;;;;;9.68;4.50;;;17.00;99.40;;;;;;4930032;28;212814;-69
2022/09/05 03:09:31;;;;;;;10.23;4.25;;;16.90;99.50;;;;;;4982368;28;20534;-69
2022/09/05 03:12:18;;;;;;;9.45;4.50;;;16.80;99.50;;;;;;4932406;28;212914;-69
2022/09/05 03:14:47;;;;;;;10.40;4.70;;;16.80;99.70;;;;;;4979149;28;20054;-69
2022/09/05 03:17:44;;;;;;;10.25;4.95;;;16.80;99.80;;;;;;4921338;28;211954;-69
2022/09/05 03:20:28;;;;;;;8.97;4.70;;;16.80;99.90;;;;;;4937200;28;209920;-69
2022/09/05 03:23:32;;;;;;;8.55;4.65;;;16.80;99.90;;;;;;4985779;28;20632;-69
2022/09/05 03:26:36;;;;;;;9.13;5.05;;;16.70;99.90;;;;;;4924103;28;210160;-69
2022/09/05 03:29:40;;;;;;;10.00;4.60;;;16.70;99.90;;;;;;4976585;28;20523;-69
2022/09/05 03:32:24;;;;;;;10.45;4.90;;;16.70;99.90;;;;;;4938891;28;206386;-68
2022/09/05 03:34:53;;;;;;;10.27;4.82;;;16.60;99.90;;;;;;4967363;28;20051;-68
2022/09/05 03:37:57;;;;;;;10.75;4.88;;;16.60;99.90;;;;;;4927264;28;206355;-68
2022/09/05 03:40:35;;;;;;;12.00;5.07;;;16.60;99.90;;;;;;4931874;28;212254;-68
2022/09/05 03:43:29;;;;;;;9.70;4.60;;;16.50;99.90;;;;;;4984168;28;20054;-69
2022/09/05 03:46:25;;;;;;;9.35;4.68;;;16.60;99.90;;;;;;4952525;28;205937;-68
2022/09/05 03:49:24;;;;;;;8.90;4.93;;;16.50;99.90;;;;;;4976739;28;20500;-68
2022/09/05 03:52:38;;;;;;;10.57;5.10;;;16.50;99.90;;;;;;4933280;28;204980;-69
2022/09/05 03:55:20;;;;;;;11.40;5.15;;;16.50;99.90;;;;;;4884866;28;208535;-68
2022/09/05 03:57:54;;;;;;;10.90;5.72;;;16.50;99.90;;;;;;4952749;28;20512;-68
2022/09/05 04:00:23;;;;;;;10.30;5.13;;;16.50;99.90;;;;;;4895530;28;209590;-68
2022/09/05 04:03:13;;;;;;;8.98;5.15;;;16.40;99.90;;;;;;4922720;29;20047;-68
2022/09/05 04:06:07;;;;;;;10.88;4.88;;;16.40;99.90;;;;;;4898705;28;210165;-69
2022/09/05 04:09:10;;;;;;;9.65;5.15;;;16.40;99.90;;;;;;4927330;29;20051;-69
2022/09/05 04:11:45;;;;;;;9.40;4.50;;;16.40;99.90;;;;;;4902662;28;206353;-68
2022/09/05 04:14:32;;;;;;;9.13;4.88;;;16.30;99.90;;;;;;4947819;28;20124;-68
2022/09/05 04:17:02;;;;;;;11.48;4.90;;;16.30;99.90;;;;;;4900605;28;210686;-69
2022/09/05 04:19:50;;;;;;;9.15;5.00;;;16.30;99.90;;;;;;4947032;28;20044;-67
2022/09/05 04:22:39;;;;;;;11.45;5.28;;;16.30;99.90;;;;;;4872512;29;205901;-68
2022/09/05 04:25:33;;;;;;;11.80;6.10;;;16.20;99.90;;;;;;4888009;28;211024;-68
2022/09/05 04:28:37;;;;;;;9.57;4.90;;;16.20;99.90;;;;;;4965368;28;20050;-68
2022/09/05 04:31:15;;;;;;;11.82;6.00;;;16.20;99.90;;;;;;4918189;28;215769;-68
2022/09/05 04:34:04;;;;;;;9.10;5.13;;;16.10;99.90;;;;;;4968232;28;20816;-68
2022/09/05 04:36:37;;;;;;;10.65;5.25;;;16.10;99.90;;;;;;4877672;29;81084;-68
2022/09/05 04:39:18;;;;;;;11.15;5.70;;;16.10;99.90;;;;;;4911522;29;20056;-68
2022/09/05 04:42:02;;;;;;;;;;;16.10;99.90;;;;;;4884369;29;206097;-69
2022/09/05 04:44:54;;;;;;;12.10;6.50;;;16.00;99.90;;;;;;4929127;29;19927;-69
2022/09/05 04:47:24;;;;;;;10.75;5.72;;;16.00;99.90;;;;;;4828747;29;206445;-69
2022/09/05 04:50:05;;;;;;;10.38;5.80;;;15.90;99.90;;;;;;4887890;29;20056;-69
2022/09/05 04:52:57;;;;;;;11.40;6.40;;;15.90;99.90;;;;;;4836015;29;207036;-68
2022/09/05 04:55:31;;;;;;;10.43;5.93;;;15.90;99.90;;;;;;4852342;29;140649;-69
2022/09/05 04:58:10;;;;;;;11.18;6.38;;;15.90;99.90;;;;;;4873782;29;20053;-69
2022/09/05 05:00:46;;;;;;;10.88;6.18;;;15.90;99.90;;;;;;4837214;29;210431;-68
2022/09/05 05:03:21;;;;;;;10.68;5.63;;;15.90;99.90;;;;;;4879163;29;20466;-68
2022/09/05 05:05:47;;;;;;;9.70;5.90;;;15.90;99.90;;;;;;4832104;29;209796;-68
2022/09/05 05:08:18;;;;;;;10.77;5.90;;;15.90;99.90;;;;;;4879334;29;20064;-68
2022/09/05 05:10:49;;;;;;;10.63;5.97;;;15.90;99.90;;;;;;4836267;29;206041;-69
2022/09/05 05:13:25;;;;;;;10.38;6.00;;;15.90;99.90;;;;;;4899405;29;20055;-69
2022/09/05 05:15:59;;;;;;;16.77;6.20;;;15.90;99.90;;;;;;4878227;29;205403;-69
2022/09/05 05:18:28;;;;;;;13.70;6.50;;;15.90;99.90;;;;;;4929000;29;20055;-68
2022/09/05 05:21:24;;;;;;;12.40;6.00;;;15.90;99.90;;;;;;4870297;29;148414;-68
2022/09/05 05:23:59;;;;;;;12.00;5.55;;;15.90;99.90;;;;;;4894017;29;20063;-69
2022/09/05 05:26:54;;;;;;;10.10;5.97;;;15.90;99.90;;;;;;4871011;29;206003;-69
2022/09/05 05:29:38;;;;;;;11.88;5.95;;;15.90;99.90;;;;;;4876940;29;20422;-68
2022/09/05 05:32:06;;;;;;;9.85;6.32;;;16.00;99.90;;;;;;4841102;29;205713;-68
2022/09/05 05:34:40;;;;;;;12.05;6.22;;;16.00;99.90;;;;;;4893454;29;20494;-68
2022/09/05 05:37:22;;;;;;;16.75;6.78;;;16.00;99.90;;;;;;4840920;29;206338;-69
2022/09/05 05:39:58;;;;;;;13.65;6.95;;;16.00;99.90;;;;;;4888396;29;20060;-68
2022/09/05 05:42:25;;;;;;;10.90;6.43;;;16.10;99.90;;;;;;4829830;29;206503;-68
2022/09/05 05:44:54;;;;;;;9.50;5.88;;;16.10;99.90;;;;;;4888700;29;20060;-69
2022/09/05 05:47:40;;;;;;;11.63;6.20;;;16.10;99.90;;;;;;4833008;29;206504;-69
2022/09/05 05:50:48;;;;;;;10.63;6.30;;;16.20;99.90;;;;;;4831284;29;206498;-68
2022/09/05 05:53:47;;;;;;;11.52;6.70;;;16.30;99.90;;;;;;4878221;29;20080;-69
2022/09/05 05:56:16;;;;;;;13.60;7.15;;;16.30;99.90;;;;;;4787962;29;209856;-69
2022/09/05 05:59:06;;;;;;;11.63;7.32;;;16.40;99.90;;;;;;4851469;29;20060;-70
2022/09/05 06:01:44;;;;;;;13.13;6.88;;;16.50;99.90;;;;;;4802151;29;213419;-70
2022/09/05 06:04:39;;;;;;;12.65;6.90;;;16.50;99.90;;;;;;4861048;29;20444;-71
2022/09/05 06:07:46;;;;;;;14.15;7.25;;;16.60;99.90;;;;;;4792325;29;206768;-70
2022/09/05 06:10:51;;;;;;;12.10;7.20;;;16.70;99.90;;;;;;4816125;29;152395;-70
2022/09/05 06:13:39;;;;;;;13.52;7.30;;;16.80;99.90;;;;;;4846996;29;20407;-71
2022/09/05 06:16:35;;;;;;;12.68;6.93;;;16.80;99.90;;;;;;4817994;29;205597;-71
2022/09/05 06:19:39;;;;;;;12.27;6.75;;;16.90;99.90;;;;;;4849175;29;20049;-70
2022/09/05 06:22:23;;;;;;;10.85;6.72;;;17.00;99.90;;;;;;4793680;29;156714;-70
2022/09/05 06:25:26;;;;;;;11.32;6.85;;;17.10;99.90;;;;;;4862480;29;20049;-71
2022/09/05 06:28:09;;;;;;;9.90;6.38;;;17.20;99.90;;;;;;4807070;29;206178;-70
2022/09/05 06:30:49;;;;;;;10.57;6.15;;;17.30;99.90;;;;;;4814016;29;205786;-70
2022/09/05 06:33:37;;;;;;;10.90;6.70;;;17.50;99.90;;;;;;4858074;29;20061;-70
2022/09/05 06:36:24;;;;;;;13.70;6.95;;;17.60;99.90;;;;;;4823233;29;141675;-70
2022/09/05 06:39:20;;;;;;;20.00;7.03;;;17.70;99.90;;;;;;4872963;29;20053;-70
2022/09/05 06:42:15;;;;;;;13.20;6.05;;;17.90;99.90;;;;;;4851873;29;205419;-70
2022/09/05 06:45:02;;;;;;;12.32;5.55;;;18.40;99.90;;;;;;4889046;29;20060;-71
2022/09/05 06:47:30;;;;;;;13.35;6.18;;;18.90;99.90;;;;;;4893518;28;202734;-70
2022/09/05 06:50:12;;;;;;;11.43;6.15;;;19.50;99.90;;;;;;4961221;28;208971;-70
2022/09/05 06:53:17;;;;;;;10.82;5.65;;;20.00;99.90;;;;;;4962106;28;210564;-70
2022/09/05 06:56:09;;;;;;;11.55;5.68;;;20.50;99.90;;;;;;4895231;28;205172;-70
2022/09/05 06:59:07;;;;;;;12.30;5.60;;;20.90;99.90;;;;;;4890610;29;20053;-70
2022/09/05 07:01:49;;;;;;;11.73;5.35;;;21.20;99.80;;;;;;4840300;29;218319;-70
2022/09/05 07:04:30;;;;;;;12.50;5.65;;;21.40;99.30;;;;;;4899342;29;20060;-70
2022/09/05 07:07:23;;;;;;;10.52;5.00;;;21.60;99.20;;;;;;4867788;29;211147;-70
2022/09/05 07:10:07;;;;;;;10.27;5.38;;;21.60;98.10;;;;;;4890090;29;20057;-70
2022/09/05 07:12:45;;;;;;;11.30;4.97;;;21.70;98.30;;;;;;4831294;29;206090;-69
2022/09/05 07:15:30;;;;;;;10.37;4.63;;;21.90;98.10;;;;;;4826929;29;202818;-70
2022/09/05 07:18:25;;;;;;;12.27;5.00;;;22.30;97.90;;;;;;4879606;29;20544;-70
2022/09/05 07:21:00;;;;;;;12.63;5.25;;;22.60;97.10;;;;;;4833953;29;206208;-71
2022/09/05 07:23:42;;;;;;;16.08;5.38;;;22.90;96.90;;;;;;4879030;29;20060;-70
2022/09/05 07:26:09;;;;;;;12.68;5.07;;;23.20;96.70;;;;;;4856578;29;209842;-71
2022/09/05 07:28:42;;;;;;;10.50;5.07;;;23.60;96.20;;;;;;4878671;29;20738;-69
2022/09/05 07:31:15;;;;;;;9.18;4.80;;;24.00;96.00;;;;;;4848762;29;206106;-70
2022/09/05 07:33:45;;;;;;;9.60;5.13;;;24.40;95.20;;;;;;4920909;29;20051;-70
2022/09/05 07:36:19;;;;;;;12.55;4.75;;;24.70;95.00;;;;;;4927612;28;215334;-71
2022/09/05 07:38:49;;;;;;;10.75;4.28;;;25.00;94.30;;;;;;4983825;28;20496;-71
2022/09/05 07:41:28;;;;;;;12.30;4.20;;;25.30;94.10;;;;;;4932534;28;207396;-71
2022/09/05 07:44:02;;;;;;;9.60;4.20;;;25.70;93.80;;;;;;4986459;28;20054;-71
2022/09/05 07:46:38;;;;;;;10.10;3.97;;;26.10;93.10;;;;;;4949143;28;209908;-70
2022/09/05 07:49:15;;;;;;;9.63;4.40;;;26.50;92.10;;;;;;4986631;28;20443;-70
2022/09/05 07:51:58;;;;;;;9.23;4.38;;;26.50;91.40;;;;;;4947084;28;210017;-70
2022/09/05 07:54:28;;;;;;;11.05;4.13;;;26.30;90.60;;;;;;5000118;28;20046;-71
2022/09/05 07:57:02;;;;;;;9.73;3.90;;;26.10;90.70;;;;;;4956007;28;209427;-69
2022/09/05 07:59:32;;;;;;;8.77;3.95;;;25.90;90.60;;;;;;4982918;28;20054;-72
2022/09/05 08:02:00;;;;;;;12.65;4.22;;;25.70;90.50;;;;;;4947337;28;205987;-70
2022/09/05 08:04:31;;;;;;;10.05;4.32;;;25.60;90.50;;;;;;4984814;28;20631;-71
2022/09/05 08:07:11;;;;;;;9.70;4.50;;;25.40;90.50;;;;;;4947989;28;206637;-69
2022/09/05 08:09:51;;;;;;;11.23;4.30;;;25.30;90.20;;;;;;4985466;28;20062;-70
2022/09/05 08:12:25;;;;;;;;;;;25.50;90.50;;;;;;4938585;28;205622;-71
2022/09/05 08:15:07;;;;;;;9.45;3.90;;;25.80;90.40;;;;;;4986843;28;20437;-70
2022/09/05 08:18:11;;;;;;;10.57;3.70;;;26.10;90.70;;;;;;4948336;28;143928;-70
2022/09/05 08:20:46;;;;;;;8.45;3.83;;;26.50;90.20;;;;;;4942968;28;211836;-70
2022/09/05 08:23:18;;;;;;;11.55;4.03;;;26.60;90.10;;;;;;4990967;28;20062;-71
2022/09/05 08:26:03;;;;;;;9.05;3.97;;;26.60;89.30;;;;;;4949334;28;209892;-69
2022/09/05 08:28:57;;;;;;;13.80;3.70;;;26.90;88.40;;;;;;4992423;28;20050;-70
2022/09/05 08:31:37;;;;;;;10.27;3.80;;;27.00;88.90;;;;;;4945634;28;210735;-70
2022/09/05 08:34:08;;;;;;;;;;;27.30;88.60;;;;;;4983015;28;20058;-70
2022/09/05 08:36:37;;;;;;;;;;;27.50;87.20;;;;;;4947626;28;210702;-70
2022/09/05 08:39:06;;;;;;;9.95;3.33;;;27.70;87.50;;;;;;4982565;28;19929;-70
2022/09/05 08:41:44;;;;;;;10.23;3.45;;;27.90;87.60;;;;;;4947798;28;209022;-70
2022/09/05 08:44:35;;;;;;;9.45;3.40;;;28.10;85.90;;;;;;4986986;28;20061;-70
2022/09/05 08:47:28;;;;;;;12.40;3.38;;;28.30;85.50;;;;;;4964415;28;212074;-70
2022/09/05 08:50:41;;;;;;;14.20;3.40;;;28.60;85.10;;;;;;4976591;28;210079;-69
2022/09/05 08:53:31;;;;;;;11.80;3.38;;;28.80;83.70;;;;;;4857160;29;175516;-70
2022/09/05 08:56:00;;;;;;;9.97;3.00;;;29.10;83.60;;;;;;4829605;29;211596;-70
2022/09/05 08:58:35;;;;;;;11.57;3.20;;;29.60;83.30;;;;;;4876464;29;20061;-69
2022/09/05 09:01:26;;;;;;;8.88;3.45;;;29.90;82.40;;;;;;4844491;29;206799;-70
2022/09/05 09:04:03;;;;;;;9.35;3.20;;;30.40;81.10;;;;;;4896562;29;20056;-70
2022/09/05 09:06:41;;;;;;;10.52;3.08;;;30.90;79.00;;;;;;4834750;29;213280;-71
2022/09/05 09:09:17;;;;;;;11.68;3.10;;;31.20;78.00;;;;;;4878507;29;20067;-71
2022/09/05 09:12:12;;;;;;;10.02;3.10;;;31.70;77.70;;;;;;4847628;29;210180;-70
2022/09/05 09:15:09;;;;;;;10.13;3.22;;;32.10;74.70;;;;;;4894681;29;20052;-70
2022/09/05 09:17:42;;;;;;;9.50;3.20;;;32.60;74.10;;;;;;4858260;29;207392;-71
2022/09/05 09:20:36;;;;;;;9.77;3.08;;;32.90;73.50;;;;;;4840679;29;205908;-70
2022/09/05 09:23:30;;;;;;;10.70;2.80;;;33.20;71.60;;;;;;4892715;28;20067;-71
2022/09/05 09:26:14;;;;;;;8.07;2.90;;;33.50;69.60;;;;;;4917175;28;209182;-71
2022/09/05 09:28:41;;;;;;;9.10;2.60;;;33.40;68.40;;;;;;4958092;28;20066;-71
2022/09/05 09:31:22;;;;;;;11.00;2.95;;;33.50;68.50;;;;;;4924528;28;209496;-71
2022/09/05 09:34:03;;;;;;;13.45;2.67;;;33.70;67.00;;;;;;4966445;28;20050;-71
2022/09/05 09:36:48;;;;;;;12.15;2.88;;;33.90;65.20;;;;;;4919721;28;235102;-71
2022/09/05 09:39:51;;;;;;;11.43;2.60;;;34.00;65.00;;;;;;4967137;28;20062;-71
2022/09/05 09:42:46;;;;;;;7.38;2.60;;;34.20;63.50;;;;;;4886719;28;210995;-71
2022/09/05 09:45:30;;;;;;;8.97;2.50;;;34.40;63.10;;;;;;4911716;28;209530;-70
2022/09/05 09:47:59;;;;;;;7.22;2.40;;;34.50;63.00;;;;;;4959698;28;20070;-70
2022/09/05 09:51:00;;;;;;;10.48;2.30;;;34.50;62.20;;;;;;4917155;28;215972;-71
2022/09/05 09:53:49;;;;;;;7.75;2.03;;;34.70;62.50;;;;;;4956369;28;20047;-71
2022/09/05 09:56:21;;;;;;;9.48;2.35;;;35.00;62.80;;;;;;4927739;28;209652;-71
2022/09/05 09:59:05;;;;;;;9.90;2.15;;;35.20;61.10;;;;;;4961567;28;20047;-70
2022/09/05 10:01:55;;;;;;;8.10;2.50;;;35.40;60.10;;;;;;4922475;28;208680;-69
2022/09/05 10:04:57;;;;;;;8.25;2.35;;;35.70;59.40;;;;;;4959802;28;20058;-71
2022/09/05 10:07:23;;;;;;;7.95;2.20;;;35.90;59.60;;;;;;4946677;28;205725;-71
2022/09/05 10:10:18;;;;;;;8.85;2.25;;;36.30;60.40;;;;;;4987293;28;20046;-70
2022/09/05 10:13:15;;;;;;;7.95;2.35;;;36.50;58.30;;;;;;4941418;28;206719;-70
2022/09/05 10:16:15;;;;;;;8.98;2.50;;;36.70;57.80;;;;;;4946416;28;209395;-70
2022/09/05 10:19:24;;;;;;;10.07;2.35;;;36.80;57.90;;;;;;4985308;28;20503;-70
2022/09/05 10:22:08;;;;;;;8.60;2.25;;;36.90;56.30;;;;;;4933487;28;209180;-71
2022/09/05 10:25:02;;;;;;;11.25;2.30;;;36.80;56.60;;;;;;4980394;28;20047;-71
2022/09/05 10:27:44;;;;;;;8.93;2.33;;;36.80;55.80;;;;;;4926589;28;206431;-71
2022/09/05 10:30:25;;;;;;;8.45;2.40;;;36.90;55.60;;;;;;4934606;28;209707;-71
2022/09/05 10:33:07;;;;;;;9.00;2.10;;;37.00;55.50;;;;;;4984942;28;20046;-70
2022/09/05 10:35:36;;;;;;;8.65;2.08;;;37.00;55.20;;;;;;4941347;28;209281;-70
2022/09/05 10:38:22;;;;;;;10.52;2.30;;;37.00;54.60;;;;;;4998192;28;20058;-71
2022/09/05 10:40:52;;;;;;;6.70;2.20;;;37.30;54.20;;;;;;4941545;28;210120;-70
2022/09/05 10:43:27;;;;;;;7.80;2.13;;;37.40;53.30;;;;;;4995953;28;20058;-71
2022/09/05 10:45:56;;;;;;;7.68;1.80;;;37.80;54.00;;;;;;4949320;28;209586;-71
2022/09/05 10:48:34;;;;;;;7.63;1.90;;;38.20;53.30;;;;;;4986364;28;20050;-71
2022/09/05 10:51:28;;;;;;;9.48;2.40;;;38.50;52.20;;;;;;4942766;28;207837;-71
2022/09/05 10:54:32;;;;;;;7.43;1.83;;;38.40;51.90;;;;;;4999909;28;20054;-71
2022/09/05 10:57:06;;;;;;;10.50;1.80;;;38.70;52.00;;;;;;4944673;28;206167;-71
2022/09/05 10:59:41;;;;;;;10.02;2.00;;;38.70;51.40;;;;;;4985853;28;20078;-71
2022/09/05 11:02:16;;;;;;;10.27;1.95;;;38.80;51.10;;;;;;4950815;28;209279;-71
2022/09/05 11:04:50;;;;;;;6.80;2.08;;;39.20;50.50;;;;;;4985708;28;20054;-72
2022/09/05 11:07:37;;;;;;;7.25;1.90;;;39.30;50.50;;;;;;4920508;28;207615;-71
2022/09/05 11:10:05;;;;;;;5.72;1.80;;;39.70;49.20;;;;;;4948164;28;213524;-70
2022/09/05 11:12:53;;;;;;;8.25;1.80;;;39.80;48.30;;;;;;4970122;28;20057;-70
2022/09/05 11:15:26;;;;;;;8.40;2.00;;;39.90;47.90;;;;;;4943813;28;213989;-70
2022/09/05 11:18:04;;;;;;;7.50;1.98;;;39.90;48.10;;;;;;4984839;28;20057;-71
2022/09/05 11:20:51;;;;;;;6.10;1.60;;;39.80;48.40;;;;;;4940012;28;192050;-70
2022/09/05 11:23:38;;;;;;;6.63;1.60;;;39.80;47.30;;;;;;4986149;28;20053;-71
2022/09/05 11:26:33;;;;;;;6.93;1.90;;;39.20;47.70;;;;;;4935710;28;211926;-71
2022/09/05 11:29:13;;;;;;;6.65;1.77;;;38.50;47.50;;;;;;4977086;28;20070;-70
2022/09/05 11:32:06;;;;;;;6.88;2.03;;;37.90;48.70;;;;;;4934483;28;206400;-70
2022/09/05 11:34:41;;;;;;;6.60;1.90;;;38.00;48.50;;;;;;4985353;28;20046;-71
2022/09/05 11:37:49;;;;;;;8.60;2.10;;;38.20;48.80;;;;;;4947558;28;208873;-71
2022/09/05 11:40:33;;;;;;;7.67;1.80;;;38.70;48.40;;;;;;4901878;28;218971;-71
2022/09/05 11:43:47;;;;;;;5.55;1.75;;;38.50;46.70;;;;;;4921004;28;20063;-71
2022/09/05 11:46:16;;;;;;;6.70;1.75;;;38.00;47.80;;;;;;4872449;29;210513;-70
2022/09/05 11:48:44;;;;;;;7.20;1.90;;;38.00;49.40;;;;;;4936821;28;20062;-70
2022/09/05 11:51:26;;;;;;;6.05;1.90;;;38.30;49.40;;;;;;4879435;28;209105;-70
2022/09/05 11:54:26;;;;;;;6.25;1.70;;;38.70;48.20;;;;;;4941265;28;20070;-70
2022/09/05 11:57:16;;;;;;;7.47;2.00;;;38.90;47.50;;;;;;4880337;28;212457;-70
2022/09/05 12:00:02;;;;;;;6.22;1.90;;;39.30;47.70;;;;;;4945132;28;20066;-71
2022/09/05 12:02:56;;;;;;;7.07;1.83;;;39.80;47.30;;;;;;4880091;28;206426;-71
2022/09/05 12:05:33;;;;;;;7.32;1.80;;;39.40;46.60;;;;;;4901215;28;206778;-71
2022/09/05 12:08:03;;;;;;;8.32;2.15;;;39.40;46.90;;;;;;4937773;28;20047;-71
2022/09/05 12:10:56;;;;;;;6.53;1.83;;;39.60;46.70;;;;;;4897824;28;206776;-71
2022/09/05 12:13:47;;;;;;;9.38;1.80;;;39.60;45.90;;;;;;4924616;29;20435;-71
2022/09/05 12:16:46;;;;;;;8.00;1.92;;;39.50;44.70;;;;;;4917438;28;210717;-70
2022/09/05 12:19:34;;;;;;;7.55;2.00;;;39.70;45.90;;;;;;4906127;29;20052;-71
2022/09/05 12:22:25;;;;;;;6.28;1.67;;;40.00;45.60;;;;;;4868875;29;212899;-71
2022/09/05 12:25:19;;;;;;;7.00;1.55;;;40.40;45.10;;;;;;4933138;29;20055;-71
2022/09/05 12:27:49;;;;;;;6.50;1.50;;;40.30;44.70;;;;;;4877145;29;205899;-71
2022/09/05 12:30:24;;;;;;;7.82;1.60;;;40.00;44.40;;;;;;4892618;29;209742;-71
2022/09/05 12:32:51;;;;;;;6.20;1.55;;;39.90;44.60;;;;;;4936183;29;20058;-71
2022/09/05 12:35:30;;;;;;;9.85;1.67;;;39.90;44.60;;;;;;4889859;28;212451;-71
2022/09/05 12:38:23;;;;;;;6.30;1.50;;;40.00;44.70;;;;;;4911716;29;20121;-72
2022/09/05 12:41:07;;;;;;;6.15;1.60;;;40.30;44.80;;;;;;4874909;29;205639;-71
2022/09/05 12:43:34;;;;;;;6.38;1.70;;;40.10;44.50;;;;;;4928375;29;20055;-71
2022/09/05 12:46:18;;;;;;;7.82;1.67;;;40.30;44.70;;;;;;4890359;28;210404;-70
2022/09/05 12:49:08;;;;;;;9.60;1.60;;;40.40;43.60;;;;;;4937792;29;20059;-70
2022/09/05 12:51:40;;;;;;;7.95;1.80;;;39.80;43.30;;;;;;4878066;29;205683;-71
2022/09/05 12:54:32;;;;;;;6.03;1.45;;;39.00;44.20;;;;;;4940412;29;20059;-71
2022/09/05 12:57:05;;;;;;;7.38;1.58;;;38.40;44.50;;;;;;4924569;28;206551;-71
2022/09/05 12:59:34;;;;;;;7.57;1.70;;;37.80;45.20;;;;;;5002585;28;20054;-71
2022/09/05 13:02:06;;;;;;;6.40;1.40;;;37.30;45.00;;;;;;4920441;28;206494;-71
2022/09/05 13:04:46;;;;;;;7.47;1.52;;;37.10;45.30;;;;;;4964365;28;20411;-70
2022/09/05 13:07:17;;;;;;;10.07;1.50;;;37.20;45.60;;;;;;4937607;28;208513;-70
2022/09/05 13:10:14;;;;;;;8.20;1.70;;;37.50;45.90;;;;;;4973550;28;20046;-70
2022/09/05 13:12:59;;;;;;;6.43;1.52;;;38.10;45.40;;;;;;4940642;28;206282;-71
2022/09/05 13:15:35;;;;;;;7.00;1.70;;;38.40;45.50;;;;;;4933552;28;212299;-72
2022/09/05 13:18:12;;;;;;;6.57;1.55;;;38.80;45.40;;;;;;4964501;28;20055;-71
2022/09/05 13:20:50;;;;;;;6.97;1.70;;;39.10;45.30;;;;;;4920715;28;210237;-73
2022/09/05 13:23:30;;;;;;;6.72;1.42;;;39.20;44.80;;;;;;4966229;28;20058;-73
2022/09/05 13:26:06;;;;;;;6.50;1.58;;;39.40;44.80;;;;;;4914866;28;206750;-73
2022/09/05 13:28:51;;;;;;;6.43;1.50;;;39.50;44.70;;;;;;4984955;28;20061;-75
2022/09/05 13:31:40;;;;;;;6.63;1.60;;;40.00;43.60;;;;;;4914369;28;213488;-73
2022/09/05 13:34:13;;;;;;;6.45;1.67;;;40.40;44.80;;;;;;4965884;28;20070;-73
2022/09/05 13:37:02;;;;;;;8.20;1.60;;;40.90;43.80;;;;;;4924820;28;210415;-74
2022/09/05 13:39:37;;;;;;;;;;;41.30;44.10;;;;;;4960724;28;20051;-73
2022/09/05 13:42:03;;;;;;;5.05;1.40;;;41.30;43.60;;;;;;4940112;28;210904;-73
2022/09/05 13:44:36;;;;;;;5.30;1.48;;;41.20;43.30;;;;;;4967413;28;20055;-72
2022/09/05 13:47:17;;;;;;;6.40;1.40;;;41.40;43.70;;;;;;4924570;28;209583;-72
2022/09/05 13:49:54;;;;;;;5.70;1.40;;;41.70;43.00;;;;;;4969504;28;20042;-73
2022/09/05 13:52:30;;;;;;;5.88;1.50;;;41.70;42.40;;;;;;4944974;28;209248;-72
2022/09/05 13:55:16;;;;;;;4.57;1.20;;;41.80;41.60;;;;;;4963343;28;211702;-72
2022/09/05 13:57:47;;;;;;;7.50;1.40;;;41.60;41.00;;;;;;4981016;28;204835;-74
2022/09/05 14:00:38;;;;;;;5.55;1.40;;;40.70;41.60;;;;;;4933028;28;208553;-71